Latest Coastal Weather Observations for Dum In Mirrie

IDD60701

Issued at 1:11 am CST Wednesday 19 February 2020 (issued every 10 minutes, with the page automatically refreshed every 10 minutes)

About coastal observations | Map of coastal stations | Coastal observations for NT | Marine services | Other Formats
Station Details ID: 014277 Name: DUM IN MIRRIE AIRSTRIP Lat: -12.63 Lon: 130.37 Height: 3.5 m
Data from the previous 72 hours. | See also: Recent months at Dum In Mirrie
Date/Time
CST
Wind Sea
Height
m
Swell Vis
km
Cloud Weather Temp
°C
Press
hPa
Rain since
9am
mm
Dir  Spd
kts
Gust
kts
Height
m
Period
s
Dir
19/01:00am E 3 6 - - - - - - - 26.3 1007.8 26.0
19/12:30am E 3 4 - - - - - - - 26.4 1008.2 26.0
19/12:00am E 4 5 - - - - - - - 26.5 1008.2 26.0
 
Date/Time
CST
Wind Sea
Height
m
Swell Vis
km
Cloud Weather Temp
°C
Press
hPa
Rain since
9am
mm
Dir  Spd
kts
Gust
kts
Height
m
Period
s
Dir
18/11:30pm E 3 4 - - - - - - - 26.5 1008.1 26.0
18/11:00pm E 3 5 - - - - - - - 26.4 1008.1 26.0
18/10:30pm E 2 3 - - - - - - - 26.5 1007.9 26.0
18/10:00pm ENE 2 3 - - - - - - - 26.1 1007.6 26.0
18/09:30pm E 5 8 - - - - - - - 26.2 1007.6 26.0
18/09:00pm ESE 3 7 - - - - - - - 26.5 1006.9 26.0
18/08:30pm CALM 0 1 - - - - - - - 26.3 1006.0 26.0
18/08:00pm N 2 3 - - - - - - - 26.9 1005.3 26.0
18/07:30pm SE 1 5 - - - - - - - 26.4 1004.6 26.0
18/07:00pm S 3 5 - - - - - - - 26.8 1003.8 26.0
18/06:30pm SSW 3 5 - - - - - - - 25.7 1004.0 26.0
18/06:00pm SSE 1 5 - - - - - - - 26.0 1004.3 26.0
18/05:30pm S 5 10 - - - - - - - 25.4 1004.6 26.0
18/05:00pm SE 3 6 - - - - - - - 24.9 1005.4 26.0
18/04:30pm SSW 3 6 - - - - - - - 24.1 1006.4 26.0
18/04:00pm SSW 6 10 - - - - - - - 23.9 1007.3 25.6
18/03:30pm SSE 10 16 - - - - - - - 23.9 1008.3 19.4
18/03:13pm SE 9 19 - - - - - - - 26.6 1007.9 0.0
18/03:00pm SW 8 14 - - - - - - - 31.6 1007.0 0.0
18/02:30pm WSW 6 10 - - - - - - - 33.2 1006.0 0.0
18/02:00pm WSW 9 15 - - - - - - - 32.5 1006.2 0.0
18/01:30pm WSW 7 12 - - - - - - - 32.1 1006.9 0.0
18/01:00pm WSW 9 13 - - - - - - - 32.1 1007.2 0.0
18/12:30pm WSW 9 13 - - - - - - - 32.1 1007.7 0.0
18/12:00pm WSW 10 15 - - - - - - - 31.9 1008.0 0.0
18/11:30am WSW 11 14 - - - - - - - 31.7 1008.3 0.0
18/11:00am W 8 15 - - - - - - - 32.3 1008.6 0.0
18/10:30am W 6 12 - - - - - - - 32.3 1008.6 0.0
18/10:00am W 7 12 - - - - - - - 31.9 1008.6 0.0
18/09:30am W 6 12 - - - - - - - 31.8 1008.3 0.0
18/09:00am W 6 11 - - - - - - - 31.4 1008.2 0.6
18/08:30am W 6 11 - - - - - - - 30.8 1007.8 0.6
18/08:00am W 5 9 - - - - - - - 30.0 1007.8 0.6
18/07:30am W 5 9 - - - - - - - 29.7 1007.3 0.6
18/07:00am W 5 9 - - - - - - - 29.4 1007.2 0.6
18/06:30am W 5 9 - - - - - - - 29.4 1007.0 0.6
18/06:00am W 4 8 - - - - - - - 29.3 1006.9 0.6
18/05:30am W 3 6 - - - - - - - 29.3 1006.9 0.6
18/05:00am W 4 7 - - - - - - - 29.1 1006.4 0.6
18/04:30am W 4 7 - - - - - - - 28.9 1006.4 0.6
18/04:00am WNW 2 4 - - - - - - - 28.4 1006.4 0.6
18/03:30am NNW 1 3 - - - - - - - 28.1 1006.5 0.6
18/03:00am NNE 1 3 - - - - - - - 28.5 1006.9 0.6
18/02:30am N 5 9 - - - - - - - 29.1 1007.4 0.6
18/02:00am NNW 4 10 - - - - - - - 29.6 1007.8 0.6
18/01:30am NNW 5 9 - - - - - - - 29.6 1008.4 0.6
18/01:00am NNW 3 6 - - - - - - - 29.5 1008.1 0.6
18/12:30am NNW 4 7 - - - - - - - 29.4 1009.0 0.6
18/12:00am N 2 3 - - - - - - - 29.4 1009.4 0.6
 
Date/Time
CST
Wind Sea
Height
m
Swell Vis
km
Cloud Weather Temp
°C
Press
hPa
Rain since
9am
mm
Dir  Spd
kts
Gust
kts
Height
m
Period
s
Dir
17/11:30pm NW 3 7 - - - - - - - 29.8 1009.1 0.6
17/11:00pm WNW 3 6 - - - - - - - 29.8 1009.1 0.6
17/10:30pm WNW 4 8 - - - - - - - 29.8 1008.8 0.6
17/10:00pm WNW 4 7 - - - - - - - 29.8 1008.5 0.6
17/09:30pm W 4 8 - - - - - - - 29.8 1008.1 0.6
17/09:00pm W 4 8 - - - - - - - 29.8 1007.9 0.6
17/08:30pm W 5 10 - - - - - - - 29.9 1007.4 0.6
17/08:00pm W 5 7 - - - - - - - 29.6 1006.6 0.6
17/07:30pm W 6 12 - - - - - - - 29.3 1006.1 0.6
17/07:00pm W 3 6 - - - - - - - 28.8 1006.1 0.6
17/06:30pm W 3 6 - - - - - - - 29.1 1006.2 0.0
17/06:00pm NW 2 5 - - - - - - - 27.7 1006.3 0.0
17/05:30pm ESE 4 6 - - - - - - - 27.3 1007.3 0.0
17/05:00pm SE 7 15 - - - - - - - 27.9 1007.7 0.0
17/04:30pm SW 5 11 - - - - - - - 32.7 1007.0 0.0
17/04:00pm WSW 8 16 - - - - - - - 32.3 1006.3 0.0
17/03:30pm WSW 8 17 - - - - - - - 31.9 1006.6 0.0
17/03:00pm W 8 15 - - - - - - - 32.3 1006.3 0.0
17/02:30pm W 6 11 - - - - - - - 33.3 1006.8 0.0
17/02:00pm W 6 10 - - - - - - - 32.6 1007.0 0.0
17/01:30pm W 6 11 - - - - - - - 33.5 1007.7 0.0
17/01:00pm W 5 10 - - - - - - - 33.4 1008.2 0.0
17/12:30pm WSW 5 7 - - - - - - - 32.8 1008.6 0.0
17/12:00pm WSW 5 9 - - - - - - - 32.4 1008.5 0.0
17/11:30am WSW 6 9 - - - - - - - 32.1 1008.9 0.0
17/11:00am W 5 7 - - - - - - - 33.0 1009.5 0.0
17/10:30am W 4 8 - - - - - - - 32.0 1009.8 0.0
17/10:00am WSW 3 6 - - - - - - - 31.1 1010.2 0.0
17/09:30am WSW 4 5 - - - - - - - 31.8 1010.1 0.0
17/09:00am WSW 2 3 - - - - - - - 31.6 1010.1 0.0
17/08:30am W 3 6 - - - - - - - 30.3 1009.2 0.0
17/08:00am W 4 7 - - - - - - - 29.7 1008.6 0.0
17/07:30am W 4 6 - - - - - - - 29.3 1007.8 0.0
17/07:00am W 4 8 - - - - - - - 29.1 1007.5 0.0
17/06:30am W 4 8 - - - - - - - 29.1 1007.0 0.0
17/06:00am W 5 9 - - - - - - - 29.2 1006.7 0.0
17/05:30am W 5 8 - - - - - - - 29.1 1006.7 0.0
17/05:00am W 5 9 - - - - - - - 29.3 1006.7 0.0
17/04:30am W 5 9 - - - - - - - 29.3 1006.5 0.0
17/04:00am W 5 9 - - - - - - - 29.5 1006.5 0.0
17/03:30am W 6 11 - - - - - - - 29.5 1006.3 0.0
17/03:00am WSW 5 9 - - - - - - - 29.5 1006.6 0.0
17/02:30am W 4 8 - - - - - - - 29.5 1006.8 0.0
17/02:00am W 5 8 - - - - - - - 29.4 1007.1 0.0
17/01:30am W 5 10 - - - - - - - 29.5 1007.3 0.0
17/01:00am W 5 9 - - - - - - - 29.5 1007.7 0.0
17/12:30am W 5 12 - - - - - - - 29.5 1008.2 0.0
17/12:00am W 7 11 - - - - - - - 29.5 1008.3 0.0
 
Date/Time
CST
Wind Sea
Height
m
Swell Vis
km
Cloud Weather Temp
°C
Press
hPa
Rain since
9am
mm
Dir  Spd
kts
Gust
kts
Height
m
Period
s
Dir
16/11:30pm W 7 13 - - - - - - - 29.6 1008.5 0.0
16/11:00pm WSW 6 11 - - - - - - - 29.6 1008.5 0.0
16/10:30pm WSW 9 14 - - - - - - - 29.9 1008.5 0.0
16/10:00pm W 8 13 - - - - - - - 29.9 1008.5 0.0
16/09:30pm W 6 12 - - - - - - - 29.9 1008.1 0.0
16/09:00pm W 7 12 - - - - - - - 30.1 1007.7 0.0
16/08:30pm W 6 9 - - - - - - - 30.1 1007.4 0.0
16/08:00pm W 5 11 - - - - - - - 30.1 1006.7 0.0
16/07:30pm W 6 9 - - - - - - - 30.0 1006.3 0.0
16/07:00pm WNW 5 9 - - - - - - - 30.1 1005.9 0.0
16/06:30pm W 6 11 - - - - - - - 30.6 1005.7 0.0
16/06:00pm W 7 13 - - - - - - - 31.0 1005.6 0.0
16/05:30pm W 5 10 - - - - - - - 31.2 1005.7 0.0
16/05:00pm WNW 6 10 - - - - - - - 31.4 1005.9 0.0
16/04:30pm NW 7 13 - - - - - - - 32.0 1005.9 0.0
16/04:00pm NW 7 13 - - - - - - - 32.2 1005.9 0.0
16/03:30pm NW 6 13 - - - - - - - 31.9 1006.1 0.0
16/03:00pm NW 6 11 - - - - - - - 32.3 1006.1 0.0
16/02:30pm NW 7 12 - - - - - - - 32.2 1006.2 0.0
16/02:00pm WNW 3 6 - - - - - - - 32.3 1006.6 0.0
16/01:30pm W 6 11 - - - - - - - 31.5 1007.2 0.0
16/01:00pm SW 4 6 - - - - - - - 31.2 1007.7 0.0
16/12:30pm SW 5 10 - - - - - - - 30.6 1008.3 0.0
16/12:00pm WSW 10 15 - - - - - - - 31.1 1009.0 0.0
16/11:30am WSW 11 17 - - - - - - - 31.2 1009.8 0.0
16/11:00am W 11 17 - - - - - - - 31.0 1010.1 0.0
16/10:30am W 8 13 - - - - - - - 31.1 1010.1 0.0
16/10:00am WSW 8 14 - - - - - - - 30.3 1010.5 0.0
16/09:30am W 5 9 - - - - - - - 30.1 1010.1 0.0
16/09:00am WNW 4 8 - - - - - - - 29.4 1009.3 0.2
16/08:30am WNW 4 7 - - - - - - - 28.4 1008.9 0.2
16/08:00am NW 4 8 - - - - - - - 27.6 1008.0 0.2
16/07:30am NNW 3 6 - - - - - - - 26.2 1007.6 0.2
16/07:00am NNW 2 3 - - - - - - - 24.9 1007.8 0.2
16/06:30am N 2 3 - - - - - - - 24.8 1007.7 0.2
16/06:00am NE 3 5 - - - - - - - 24.9 1007.8 0.2
16/05:30am ESE 2 5 - - - - - - - 24.6 1008.5 0.2
16/05:00am ESE 2 4 - - - - - - - 25.0 1008.2 0.2
16/04:30am ESE 4 8 - - - - - - - 25.5 1008.5 0.0
16/04:00am SW 1 4 - - - - - - - 29.3 1007.9 0.0
16/03:30am W 4 8 - - - - - - - 29.5 1007.3 0.0
16/03:00am W 5 8 - - - - - - - 29.5 1007.2 0.0
16/02:30am W 5 9 - - - - - - - 29.6 1006.8 0.0
16/02:00am W 5 9 - - - - - - - 29.6 1006.8 0.0
16/01:30am W 5 9 - - - - - - - 29.7 1007.5 0.0

Other formats

Comma delimited format used in spreadsheet applications
http://www.bom.gov.au/fwo/IDD60701/IDD60701.94116.axf

JavaScript Object Notation format (JSON) in row-major order
http://www.bom.gov.au/fwo/IDD60701/IDD60701.94116.json

Data quality

Most of these data are generated automatically and are frequently updated. Quality checks on data are not normally performed. It is possible for incorrect values to appear. Refer to information at About Latest Weather Observations and please check the disclaimer before using these data.